Time;durP1;ratioP1;P1;durP2;ratioP2;P2;SDS_P1;SDS_P2;PMS_P1;PMS_P2;Temp;Humidity;BMP_temperature;BMP_pressure;BME280_temperature;BME280_humidity;BME280_pressure;Samples;Min_cycle;Max_cycle;Signal;HPM_P1;HPM_P2
2023/03/18 00:02:19;;;;;;;12.90;6.32;;;7.50;99.90;;;;;;5054038;28;20506;-82
2023/03/18 00:04:45;;;;;;;10.95;5.55;;;7.40;99.90;;;;;;5087388;28;20056;-82
2023/03/18 00:07:11;;;;;;;12.45;5.68;;;7.40;99.90;;;;;;5071639;28;20024;-81
2023/03/18 00:09:37;;;;;;;14.52;6.25;;;7.40;99.90;;;;;;5054189;28;20512;-82
2023/03/18 00:12:03;;;;;;;13.00;5.38;;;7.30;99.90;;;;;;5054158;28;20046;-82
2023/03/18 00:14:30;;;;;;;12.15;6.32;;;7.30;99.90;;;;;;5054155;28;20025;-82
2023/03/18 00:17:11;;;;;;;13.30;6.70;;;7.30;99.90;;;;;;5054279;28;20409;-82
2023/03/18 00:19:37;;;;;;;21.08;9.07;;;7.40;99.90;;;;;;5071742;28;20041;-82
2023/03/18 00:22:03;;;;;;;18.88;8.30;;;7.40;99.90;;;;;;5074398;28;20044;-82
2023/03/18 00:24:29;;;;;;;28.83;13.00;;;7.50;99.90;;;;;;5057843;28;20475;-82
2023/03/18 00:26:56;;;;;;;57.95;22.20;;;7.50;99.90;;;;;;5041236;28;20032;-81
2023/03/18 00:29:23;;;;;;;79.80;31.23;;;7.60;99.90;;;;;;5040894;28;20043;-82
2023/03/18 00:31:50;;;;;;;52.05;19.20;;;7.60;99.90;;;;;;5057520;28;20521;-82
2023/03/18 00:34:16;;;;;;;55.50;19.27;;;7.50;99.90;;;;;;5040626;28;20116;-82
2023/03/18 00:36:44;;;;;;;37.90;14.65;;;7.50;99.90;;;;;;5040780;28;20423;-82
2023/03/18 00:39:12;;;;;;;28.98;11.27;;;7.40;99.90;;;;;;5040689;28;20044;-82
2023/03/18 00:41:38;;;;;;;22.25;10.60;;;7.30;99.90;;;;;;5090481;28;20040;-82
2023/03/18 00:44:04;;;;;;;24.85;10.23;;;7.30;99.90;;;;;;5074936;28;20028;-81
2023/03/18 00:46:33;;;;;;;20.45;9.73;;;7.30;99.90;;;;;;5039924;28;20033;-81
2023/03/18 00:49:03;;;;;;;19.55;9.52;;;7.20;99.90;;;;;;5056455;28;20078;-82
2023/03/18 00:51:31;;;;;;;18.70;8.80;;;7.20;99.90;;;;;;5056783;28;20028;-82
2023/03/18 00:53:59;;;;;;;21.67;9.07;;;7.10;99.90;;;;;;5056993;28;20033;-82
2023/03/18 00:56:28;;;;;;;24.98;11.98;;;7.10;99.90;;;;;;5056926;28;20035;-82
2023/03/18 00:58:54;;;;;;;21.48;10.15;;;7.00;99.90;;;;;;5040624;28;20028;-82
2023/03/18 01:01:21;;;;;;;21.02;9.88;;;7.00;99.90;;;;;;5040348;28;20139;-82
2023/03/18 01:03:48;;;;;;;20.25;8.52;;;7.00;99.90;;;;;;5056829;28;20054;-81
2023/03/18 01:06:21;;;;;;;17.67;7.95;;;6.90;99.90;;;;;;5056706;28;20117;-82
2023/03/18 01:08:48;;;;;;;17.67;8.70;;;6.90;99.90;;;;;;5056730;28;20127;-82
2023/03/18 01:11:14;;;;;;;20.20;7.20;;;6.90;99.90;;;;;;5056723;28;20024;-82
2023/03/18 01:13:40;;;;;;;16.33;8.20;;;6.90;99.90;;;;;;5073426;28;20035;-81
2023/03/18 01:16:07;;;;;;;17.15;7.43;;;6.90;99.90;;;;;;5074722;28;20122;-82
2023/03/18 01:18:35;;;;;;;17.23;7.97;;;6.90;99.90;;;;;;5039509;28;20031;-82
2023/03/18 01:21:01;;;;;;;13.95;7.15;;;6.90;99.90;;;;;;5072943;28;20080;-82
2023/03/18 01:23:31;;;;;;;13.73;6.80;;;6.90;99.90;;;;;;5056381;28;20017;-82
2023/03/18 01:25:58;;;;;;;11.40;6.07;;;6.90;99.90;;;;;;5056532;28;20028;-82
2023/03/18 01:28:24;;;;;;;17.02;6.80;;;6.90;99.90;;;;;;5056384;28;20052;-82
2023/03/18 01:30:49;;;;;;;16.23;6.65;;;6.90;99.90;;;;;;5054613;28;20086;-82
2023/03/18 01:33:19;;;;;;;13.70;6.40;;;6.90;99.90;;;;;;5073248;28;20024;-82
2023/03/18 01:35:46;;;;;;;9.65;5.97;;;7.10;99.90;;;;;;5056175;28;20063;-82
2023/03/18 01:38:14;;;;;;;12.75;5.97;;;7.10;99.90;;;;;;5056060;28;20056;-82
2023/03/18 01:40:40;;;;;;;19.58;5.65;;;7.20;99.90;;;;;;5055516;28;20029;-82
2023/03/18 01:43:20;;;;;;;11.50;5.65;;;7.40;99.90;;;;;;5055605;28;20032;-82
2023/03/18 01:45:57;;;;;;;11.20;4.95;;;7.70;99.90;;;;;;5055925;28;20037;-82
2023/03/18 01:48:25;;;;;;;9.57;4.35;;;8.00;99.90;;;;;;5056015;28;20400;-82
2023/03/18 01:51:04;;;;;;;6.25;3.80;;;8.20;99.90;;;;;;5055623;28;20518;-82
2023/03/18 01:53:46;;;;;;;9.15;4.30;;;8.40;99.90;;;;;;5056263;28;20070;-81
2023/03/18 01:56:13;;;;;;;7.88;4.20;;;8.40;99.90;;;;;;5055934;28;20158;-82
2023/03/18 01:58:48;;;;;;;10.35;3.90;;;8.50;99.90;;;;;;5055786;28;20115;-82
2023/03/18 02:01:43;;;;;;;10.10;4.05;;;8.50;99.90;;;;;;5055709;28;20028;-82
2023/03/18 02:04:10;;;;;;;10.63;4.35;;;8.60;99.90;;;;;;5072670;28;20028;-82
2023/03/18 02:06:39;;;;;;;7.07;4.07;;;8.50;99.90;;;;;;5071772;28;20029;-82
2023/03/18 02:09:05;;;;;;;11.45;4.07;;;8.50;99.90;;;;;;5055648;28;20042;-82
2023/03/18 02:11:34;;;;;;;8.13;4.00;;;8.40;99.90;;;;;;5055576;28;20028;-82
2023/03/18 02:14:02;;;;;;;10.98;4.10;;;8.30;99.90;;;;;;5055614;28;20484;-82
2023/03/18 02:16:49;;;;;;;10.05;3.70;;;8.20;99.90;;;;;;5054893;28;20442;-81
2023/03/18 02:19:40;;;;;;;10.38;4.07;;;8.20;99.90;;;;;;5055184;28;20080;-82
2023/03/18 02:22:24;;;;;;;7.68;3.50;;;8.20;99.90;;;;;;5054350;28;20502;-82
2023/03/18 02:25:07;;;;;;;5.75;2.90;;;8.10;99.90;;;;;;5088946;28;20400;-82
2023/03/18 02:27:37;;;;;;;6.30;3.28;;;8.00;99.90;;;;;;5038677;28;20037;-82
2023/03/18 02:30:21;;;;;;;8.75;3.13;;;8.00;99.90;;;;;;5054617;28;20034;-82
2023/03/18 02:32:51;;;;;;;10.02;3.55;;;7.90;99.90;;;;;;5054815;28;20029;-82
2023/03/18 02:35:17;;;;;;;10.27;4.10;;;7.80;99.90;;;;;;5054498;28;20060;-82
2023/03/18 02:37:43;;;;;;;8.00;3.88;;;7.70;99.90;;;;;;5054309;28;20036;-82
2023/03/18 02:40:19;;;;;;;13.73;4.68;;;7.70;99.90;;;;;;5054619;28;20459;-82
2023/03/18 02:42:46;;;;;;;9.65;4.43;;;7.70;99.90;;;;;;5038295;28;20106;-82
2023/03/18 02:45:24;;;;;;;11.52;5.75;;;7.60;99.90;;;;;;5055620;28;20035;-82
2023/03/18 02:48:04;;;;;;;9.85;3.85;;;7.50;99.90;;;;;;5073627;28;20033;-82
2023/03/18 02:50:29;;;;;;;8.05;3.65;;;7.40;99.90;;;;;;5054914;28;20115;-82
2023/03/18 02:52:57;;;;;;;8.32;2.63;;;7.40;99.90;;;;;;5071595;28;20043;-82
2023/03/18 02:55:23;;;;;;;6.93;2.78;;;7.50;99.90;;;;;;5055004;28;20031;-82
2023/03/18 02:57:49;;;;;;;6.70;2.70;;;7.50;99.90;;;;;;5054728;28;20446;-82
2023/03/18 03:00:15;;;;;;;6.10;2.67;;;7.60;99.90;;;;;;5054882;28;20039;-82
2023/03/18 03:02:41;;;;;;;6.38;2.50;;;7.60;99.90;;;;;;5071515;28;20039;-82
2023/03/18 03:05:08;;;;;;;6.38;2.58;;;7.60;99.90;;;;;;5054450;28;20500;-81
2023/03/18 03:07:33;;;;;;;7.93;2.38;;;7.60;99.90;;;;;;5054702;28;20078;-82
2023/03/18 03:10:01;;;;;;;4.65;2.28;;;7.70;99.90;;;;;;5054380;28;20537;-81
2023/03/18 03:12:28;;;;;;;7.43;2.40;;;7.70;99.90;;;;;;5054708;28;20044;-82
2023/03/18 03:14:56;;;;;;;8.65;3.67;;;7.70;99.90;;;;;;5054514;28;20036;-82
2023/03/18 03:17:22;;;;;;;7.95;3.20;;;7.70;99.90;;;;;;5054498;28;20044;-82
2023/03/18 03:19:49;;;;;;;9.98;3.47;;;7.70;99.90;;;;;;5054536;28;20029;-82
2023/03/18 03:22:16;;;;;;;12.20;4.15;;;7.80;99.90;;;;;;5054697;28;20746;-82
2023/03/18 03:24:57;;;;;;;21.73;7.55;;;7.90;99.90;;;;;;5054639;28;20028;-82
2023/03/18 03:27:23;;;;;;;11.68;5.05;;;8.00;99.90;;;;;;5054572;28;20082;-82
2023/03/18 03:29:48;;;;;;;16.05;5.13;;;7.90;99.90;;;;;;5054132;28;20063;-82
2023/03/18 03:32:14;;;;;;;12.60;5.70;;;7.90;99.90;;;;;;5071319;28;20483;-82
2023/03/18 03:34:42;;;;;;;10.52;4.75;;;7.90;99.90;;;;;;5054579;28;20031;-82
2023/03/18 03:37:10;;;;;;;9.73;3.20;;;7.90;99.90;;;;;;5054606;28;20036;-81
2023/03/18 03:39:36;;;;;;;6.50;2.92;;;7.90;99.90;;;;;;5054547;28;20674;-82
2023/03/18 03:42:02;;;;;;;6.82;2.42;;;7.90;99.90;;;;;;5054383;28;20560;-82
2023/03/18 03:44:28;;;;;;;5.28;2.70;;;7.90;99.90;;;;;;5072791;28;20025;-82
2023/03/18 03:46:54;;;;;;;6.53;2.80;;;8.00;99.90;;;;;;5071343;28;20546;-82
2023/03/18 03:49:21;;;;;;;7.05;2.90;;;8.00;99.90;;;;;;5054475;28;20033;-82
2023/03/18 03:51:47;;;;;;;7.03;2.50;;;8.10;99.90;;;;;;5054005;28;20039;-82
2023/03/18 03:54:14;;;;;;;5.78;2.40;;;8.10;99.90;;;;;;5071193;28;20029;-82
2023/03/18 03:56:41;;;;;;;7.35;2.80;;;8.00;99.90;;;;;;5074717;28;20029;-82
2023/03/18 03:59:07;;;;;;;5.97;3.20;;;8.00;99.90;;;;;;5058365;28;20123;-82
2023/03/18 04:01:52;;;;;;;8.55;2.97;;;7.90;99.90;;;;;;5060837;28;20771;-82
2023/03/18 04:04:18;;;;;;;6.32;3.28;;;7.80;99.90;;;;;;5058113;28;20028;-82
2023/03/18 04:06:45;;;;;;;5.60;3.00;;;7.80;99.90;;;;;;5058263;28;20383;-82
2023/03/18 04:09:11;;;;;;;13.23;4.05;;;7.70;99.90;;;;;;5057897;28;20578;-82
2023/03/18 04:11:37;;;;;;;7.70;3.92;;;7.50;99.90;;;;;;5057824;28;20119;-82
2023/03/18 04:14:03;;;;;;;8.20;3.40;;;7.40;99.90;;;;;;5074523;28;20499;-82
2023/03/18 04:16:28;;;;;;;7.32;3.25;;;7.30;99.90;;;;;;5057820;28;20027;-82
2023/03/18 04:18:54;;;;;;;7.13;3.55;;;7.20;99.90;;;;;;5057521;28;20035;-82
2023/03/18 04:21:22;;;;;;;8.00;3.67;;;7.20;99.90;;;;;;5057428;28;20717;-82
2023/03/18 04:23:52;;;;;;;9.45;4.47;;;7.20;99.90;;;;;;5057530;28;20024;-82
2023/03/18 04:26:18;;;;;;;6.97;3.70;;;7.20;99.90;;;;;;5057598;28;20135;-81
2023/03/18 04:28:44;;;;;;;9.07;4.05;;;7.20;99.90;;;;;;5057423;28;20397;-82
2023/03/18 04:31:13;;;;;;;8.98;4.03;;;7.20;99.90;;;;;;5057598;28;20078;-82
2023/03/18 04:33:39;;;;;;;10.48;4.47;;;7.20;99.90;;;;;;5075476;28;20468;-82
2023/03/18 04:36:07;;;;;;;7.43;4.22;;;7.20;99.90;;;;;;5073776;28;20020;-82
2023/03/18 04:38:33;;;;;;;10.18;4.28;;;7.20;99.90;;;;;;5057790;28;20052;-82
2023/03/18 04:41:00;;;;;;;10.75;4.63;;;7.10;99.90;;;;;;5057582;28;20074;-82
2023/03/18 04:43:27;;;;;;;14.50;4.43;;;7.10;99.90;;;;;;5074733;28;20084;-82
2023/03/18 04:45:53;;;;;;;7.28;4.13;;;7.00;99.90;;;;;;5057606;28;20067;-82
2023/03/18 04:48:19;;;;;;;10.68;4.45;;;7.00;99.90;;;;;;5057593;28;20024;-82
2023/03/18 04:50:45;;;;;;;8.38;4.57;;;6.90;99.90;;;;;;5057090;28;20809;-82
2023/03/18 04:53:16;;;;;;;;;;;6.90;99.90;;;;;;5057771;28;20074;-81
2023/03/18 04:55:43;;;;;;;9.15;4.15;;;7.00;99.90;;;;;;5057500;28;19915;-82
2023/03/18 04:58:11;;;;;;;11.73;5.05;;;7.00;99.90;;;;;;5056915;28;20025;-81
2023/03/18 05:00:41;;;;;;;7.68;4.78;;;7.00;99.90;;;;;;5057094;28;20038;-82
2023/03/18 05:03:19;;;;;;;6.55;4.35;;;7.10;99.90;;;;;;5072357;28;20063;-82
2023/03/18 05:05:45;;;;;;;12.52;4.55;;;7.00;99.90;;;;;;5056867;28;20052;-82
2023/03/18 05:08:15;;;;;;;8.75;4.63;;;7.10;99.90;;;;;;5057060;28;20028;-82
2023/03/18 05:10:41;;;;;;;9.48;3.95;;;7.10;99.90;;;;;;5056778;28;20032;-81
2023/03/18 05:13:10;;;;;;;7.85;3.92;;;7.20;99.90;;;;;;5057150;28;20494;-82
2023/03/18 05:15:36;;;;;;;6.68;3.05;;;7.30;99.90;;;;;;5056809;28;20402;-82
2023/03/18 05:18:03;;;;;;;11.00;3.65;;;7.40;99.90;;;;;;5073379;28;20159;-82
2023/03/18 05:20:30;;;;;;;10.30;3.40;;;7.50;99.90;;;;;;5055890;28;20029;-82
2023/03/18 05:22:57;;;;;;;9.88;3.03;;;7.70;99.90;;;;;;5056210;28;20119;-82
2023/03/18 05:25:47;;;;;;;5.40;2.65;;;7.80;99.90;;;;;;5074445;28;20079;-82
2023/03/18 05:28:13;;;;;;;7.53;2.80;;;8.10;99.90;;;;;;5056691;28;20123;-82
2023/03/18 05:30:49;;;;;;;7.75;3.05;;;8.20;99.90;;;;;;5056353;28;20043;-82
2023/03/18 05:33:15;;;;;;;9.27;2.65;;;8.50;99.90;;;;;;5073076;28;20480;-82
2023/03/18 05:35:50;;;;;;;6.75;3.10;;;8.70;99.90;;;;;;5056882;28;20048;-84
2023/03/18 05:38:19;;;;;;;6.60;3.10;;;8.80;99.90;;;;;;5056796;28;20040;-84
2023/03/18 05:40:45;;;;;;;5.82;2.67;;;8.80;99.90;;;;;;5056802;28;20029;-84
2023/03/18 05:43:27;;;;;;;8.20;3.33;;;8.80;99.90;;;;;;5057059;28;20078;-84
2023/03/18 05:45:55;;;;;;;8.10;3.28;;;8.80;99.90;;;;;;5072998;28;20032;-84
2023/03/18 05:48:32;;;;;;;13.75;6.93;;;8.70;99.90;;;;;;5056881;28;20082;-84
2023/03/18 05:51:04;;;;;;;12.48;5.05;;;8.70;99.90;;;;;;5056647;28;20034;-85
2023/03/18 05:53:32;;;;;;;10.25;3.92;;;8.70;99.90;;;;;;5073147;28;20045;-85
2023/03/18 05:56:27;;;;;;;7.05;3.05;;;8.70;99.90;;;;;;5047084;28;20036;-84
2023/03/18 05:58:57;;;;;;;11.00;3.47;;;8.60;99.90;;;;;;5056228;28;20035;-84
2023/03/18 06:01:34;;;;;;;5.72;2.63;;;8.60;99.90;;;;;;5056494;28;20056;-84
2023/03/18 06:04:01;;;;;;;8.02;3.28;;;8.60;99.90;;;;;;5056147;28;20074;-84
2023/03/18 06:06:27;;;;;;;7.80;2.95;;;8.60;99.90;;;;;;5056400;28;20388;-85
2023/03/18 06:08:55;;;;;;;12.77;3.03;;;8.60;99.90;;;;;;5056399;28;20074;-84
2023/03/18 06:11:22;;;;;;;7.28;2.72;;;8.60;99.90;;;;;;5056295;28;20028;-85
2023/03/18 06:13:49;;;;;;;10.98;2.85;;;8.60;99.90;;;;;;5056599;28;20059;-85
2023/03/18 06:16:15;;;;;;;6.85;3.05;;;8.70;99.90;;;;;;5056353;28;20357;-84
2023/03/18 06:18:41;;;;;;;7.65;2.38;;;8.80;99.90;;;;;;5072188;28;20028;-85
2023/03/18 06:21:09;;;;;;;7.30;2.40;;;8.70;99.90;;;;;;5056587;28;20025;-84
2023/03/18 06:23:35;;;;;;;7.70;2.45;;;8.60;99.90;;;;;;5056223;28;20036;-85
2023/03/18 06:26:02;;;;;;;7.88;3.20;;;8.50;99.90;;;;;;5056291;28;20599;-84
2023/03/18 06:28:33;;;;;;;10.35;4.28;;;8.60;99.90;;;;;;5056208;28;20032;-85
2023/03/18 06:31:05;;;;;;;41.83;15.73;;;8.60;99.90;;;;;;5055845;28;20043;-84
2023/03/18 06:33:31;;;;;;;54.83;21.23;;;8.70;99.90;;;;;;5055922;28;20115;-85
2023/03/18 06:35:59;;;;;;;76.18;31.10;;;8.90;99.90;;;;;;5039279;28;20112;-85
2023/03/18 06:38:27;;;;;;;15.93;6.60;;;9.10;99.90;;;;;;5039559;28;20024;-85
2023/03/18 06:40:55;;;;;;;5.82;3.22;;;9.30;99.90;;;;;;5072227;28;20037;-85
2023/03/18 06:43:22;;;;;;;12.30;3.45;;;9.50;99.90;;;;;;5055708;28;20043;-86
2023/03/18 06:45:49;;;;;;;10.20;2.70;;;9.60;99.90;;;;;;5072427;28;20035;-85
2023/03/18 06:48:16;;;;;;;9.02;3.25;;;9.70;99.90;;;;;;5072206;28;20082;-84
2023/03/18 06:50:43;;;;;;;6.53;3.22;;;9.70;99.90;;;;;;5071949;28;20064;-85
2023/03/18 06:53:18;;;;;;;10.48;4.25;;;9.80;99.90;;;;;;5071077;28;20111;-84
2023/03/18 06:55:47;;;;;;;9.10;5.00;;;9.80;99.90;;;;;;5055630;28;20092;-84
2023/03/18 06:58:13;;;;;;;10.00;5.47;;;9.90;99.90;;;;;;5055655;28;20021;-85
2023/03/18 07:00:46;;;;;;;12.60;3.80;;;9.90;99.90;;;;;;5055780;28;20028;-84
2023/03/18 07:03:18;;;;;;;8.90;3.55;;;10.00;99.90;;;;;;5055586;28;20124;-85
2023/03/18 07:05:46;;;;;;;9.43;3.15;;;10.10;99.90;;;;;;5055481;28;20064;-85
2023/03/18 07:08:11;;;;;;;7.72;4.30;;;10.20;99.90;;;;;;5055595;28;20040;-85
2023/03/18 07:10:38;;;;;;;8.65;3.17;;;10.20;99.90;;;;;;5055413;28;20037;-85
2023/03/18 07:13:09;;;;;;;7.93;3.00;;;10.20;99.90;;;;;;5072667;28;20029;-86
2023/03/18 07:15:38;;;;;;;9.68;2.88;;;10.40;99.90;;;;;;5088937;28;20081;-84
2023/03/18 07:18:05;;;;;;;8.85;2.90;;;10.60;99.90;;;;;;5038583;28;20035;-85
2023/03/18 07:20:32;;;;;;;6.50;2.75;;;10.70;99.90;;;;;;5038641;28;20047;-85
2023/03/18 07:22:59;;;;;;;6.22;2.80;;;10.90;99.90;;;;;;5055387;28;20029;-85
2023/03/18 07:25:26;;;;;;;7.10;3.40;;;11.10;99.90;;;;;;5055119;28;20491;-85
2023/03/18 07:27:52;;;;;;;8.40;3.28;;;11.20;99.90;;;;;;5055652;28;20062;-85
2023/03/18 07:30:19;;;;;;;11.70;2.80;;;11.20;99.90;;;;;;5059108;28;20043;-85
2023/03/18 07:32:44;;;;;;;8.68;2.50;;;11.10;99.90;;;;;;5059210;28;20454;-85
2023/03/18 07:35:12;;;;;;;6.38;2.65;;;10.80;99.90;;;;;;5059382;28;20025;-85
2023/03/18 07:37:39;;;;;;;16.63;4.00;;;10.60;99.90;;;;;;5059185;28;20119;-85
2023/03/18 07:40:06;;;;;;;5.13;2.85;;;10.40;99.90;;;;;;5058884;28;20051;-85
2023/03/18 07:42:32;;;;;;;5.93;3.22;;;10.20;99.90;;;;;;5075863;28;20659;-85
2023/03/18 07:44:58;;;;;;;8.30;3.42;;;10.00;99.90;;;;;;5058973;28;20105;-85
2023/03/18 07:47:24;;;;;;;15.93;10.00;;;9.90;99.90;;;;;;5077154;28;20033;-84
2023/03/18 07:49:50;;;;;;;21.05;12.70;;;9.70;99.90;;;;;;5094921;28;20074;-85
2023/03/18 07:52:17;;;;;;;23.98;14.55;;;9.60;99.90;;;;;;5042228;28;20047;-85
2023/03/18 07:54:43;;;;;;;18.80;8.45;;;9.70;99.90;;;;;;5094018;28;20028;-85
2023/03/18 07:57:09;;;;;;;13.02;4.47;;;9.70;99.90;;;;;;5059061;28;20388;-85
2023/03/18 07:59:36;;;;;;;7.40;2.97;;;9.70;99.90;;;;;;5075751;28;20032;-85
2023/03/18 08:02:03;;;;;;;14.68;2.65;;;9.80;99.90;;;;;;5058669;28;20380;-84
2023/03/18 08:04:30;;;;;;;4.90;2.50;;;9.90;99.90;;;;;;5058676;28;20036;-84
2023/03/18 08:06:56;;;;;;;12.25;3.70;;;10.00;99.90;;;;;;5058757;28;20403;-84
2023/03/18 08:09:23;;;;;;;11.38;2.83;;;10.00;99.90;;;;;;5075105;28;20490;-84
2023/03/18 08:11:48;;;;;;;7.95;2.70;;;10.10;99.90;;;;;;5058545;28;20028;-85
2023/03/18 08:14:14;;;;;;;11.07;2.55;;;10.20;99.90;;;;;;5058209;28;20464;-84
2023/03/18 08:16:40;;;;;;;9.82;3.60;;;10.30;99.90;;;;;;5058275;28;20035;-85
2023/03/18 08:19:06;;;;;;;6.70;2.38;;;10.40;99.90;;;;;;5076260;28;20052;-84
2023/03/18 08:21:31;;;;;;;16.70;4.63;;;10.40;99.90;;;;;;5076166;28;20031;-85
2023/03/18 08:23:57;;;;;;;17.63;2.83;;;10.40;99.90;;;;;;5058045;28;20826;-85
2023/03/18 08:26:23;;;;;;;9.75;3.17;;;10.50;99.90;;;;;;5058059;28;20024;-84
2023/03/18 08:28:49;;;;;;;9.07;2.50;;;10.50;99.90;;;;;;5058097;28;20059;-85
2023/03/18 08:31:14;;;;;;;4.95;2.67;;;10.60;99.90;;;;;;5057971;28;20061;-84
2023/03/18 08:33:41;;;;;;;5.85;2.55;;;10.70;99.90;;;;;;5057979;28;20036;-85
2023/03/18 08:36:07;;;;;;;14.15;2.28;;;10.70;99.90;;;;;;5076029;28;20078;-84
2023/03/18 08:38:33;;;;;;;8.48;2.80;;;10.80;99.90;;;;;;5041334;28;20063;-85
2023/03/18 08:40:59;;;;;;;10.35;3.17;;;10.80;99.90;;;;;;5057413;28;20064;-84
2023/03/18 08:43:26;;;;;;;13.27;2.47;;;10.90;99.90;;;;;;5057727;28;20460;-84
2023/03/18 08:45:55;;;;;;;11.90;2.10;;;10.90;99.90;;;;;;5058978;28;20028;-84
2023/03/18 08:48:22;;;;;;;10.18;2.53;;;10.90;99.90;;;;;;5060869;28;20033;-85
2023/03/18 08:50:48;;;;;;;7.88;1.88;;;11.00;99.90;;;;;;5060452;28;20039;-85
2023/03/18 08:53:15;;;;;;;7.50;2.17;;;11.40;99.90;;;;;;5087020;28;20492;-84
2023/03/18 08:55:41;;;;;;;6.72;2.53;;;12.20;99.90;;;;;;5066390;28;20036;-85
2023/03/18 08:58:08;;;;;;;5.30;2.20;;;13.40;99.90;;;;;;5059744;28;20036;-85
2023/03/18 09:00:35;;;;;;;5.43;1.83;;;14.70;99.90;;;;;;5069629;28;20059;-85
2023/03/18 09:03:02;;;;;;;6.75;2.10;;;15.60;99.90;;;;;;5041399;28;20433;-85
2023/03/18 09:05:29;;;;;;;6.80;2.33;;;16.50;95.10;;;;;;5057726;28;20040;-85
2023/03/18 09:07:57;;;;;;;5.85;1.92;;;17.00;92.90;;;;;;5063815;28;20498;-85
2023/03/18 09:10:23;;;;;;;6.97;2.10;;;17.20;90.70;;;;;;5082879;28;20106;-85
2023/03/18 09:12:49;;;;;;;4.30;2.13;;;17.40;89.20;;;;;;5068944;28;20494;-84
2023/03/18 09:15:18;;;;;;;11.10;2.53;;;17.40;86.90;;;;;;5055906;28;20769;-84
2023/03/18 09:17:45;;;;;;;2.83;2.00;;;17.30;85.10;;;;;;5065700;28;20101;-84
2023/03/18 09:20:13;;;;;;;4.70;1.90;;;16.60;86.60;;;;;;5068622;28;20091;-85
2023/03/18 09:22:41;;;;;;;2.95;1.65;;;15.90;89.10;;;;;;5070416;28;20043;-85
2023/03/18 09:25:08;;;;;;;4.30;1.95;;;15.30;90.20;;;;;;5080445;28;20502;-84
2023/03/18 09:27:34;;;;;;;5.07;1.85;;;14.80;91.50;;;;;;5066712;28;20036;-85
2023/03/18 09:30:10;;;;;;;4.82;2.50;;;14.70;92.70;;;;;;5070273;28;20032;-85
2023/03/18 09:32:39;;;;;;;17.42;4.05;;;14.60;92.80;;;;;;5066313;28;20496;-85
2023/03/18 09:35:06;;;;;;;4.45;1.83;;;14.40;93.80;;;;;;5057247;28;20059;-85
2023/03/18 09:37:31;;;;;;;6.82;2.22;;;14.60;93.60;;;;;;5056997;28;20056;-86
2023/03/18 09:39:58;;;;;;;4.40;2.17;;;15.00;92.80;;;;;;5056746;28;20064;-86
2023/03/18 09:42:41;;;;;;;11.82;3.08;;;15.50;92.30;;;;;;5039817;28;20068;-86
2023/03/18 09:45:37;;;;;;;8.65;2.35;;;16.10;91.90;;;;;;5040181;28;20075;-86
2023/03/18 09:48:16;;;;;;;5.68;1.88;;;16.70;89.10;;;;;;5056586;28;20377;-86
2023/03/18 09:51:05;;;;;;;8.60;2.25;;;17.00;89.20;;;;;;5074362;28;20036;-86
2023/03/18 09:53:55;;;;;;;4.68;1.80;;;17.30;90.00;;;;;;5055902;28;20029;-86
2023/03/18 09:56:33;;;;;;;8.93;2.28;;;17.60;85.90;;;;;;5056366;28;20052;-86
2023/03/18 09:59:23;;;;;;;5.78;1.90;;;17.80;85.90;;;;;;5074626;28;20025;-87
2023/03/18 10:01:55;;;;;;;6.85;1.83;;;17.90;85.80;;;;;;5056114;28;20032;-86
2023/03/18 10:04:31;;;;;;;4.32;2.13;;;17.80;84.50;;;;;;5055854;28;20124;-85
2023/03/18 10:07:05;;;;;;;5.57;2.20;;;17.80;83.50;;;;;;5057265;28;20033;-83
2023/03/18 10:09:41;;;;;;;12.00;2.83;;;18.50;86.00;;;;;;5056530;28;20141;-86
2023/03/18 10:12:30;;;;;;;6.15;1.98;;;18.80;84.60;;;;;;5057016;28;20037;-87
2023/03/18 10:15:40;;;;;;;5.68;2.30;;;19.00;82.70;;;;;;5056406;28;20431;-85
2023/03/18 10:18:30;;;;;;;11.27;2.88;;;18.80;81.40;;;;;;5031925;28;20079;-84
2023/03/18 10:21:23;;;;;;;10.38;2.40;;;18.30;82.40;;;;;;5054840;28;20051;-84
2023/03/18 10:24:20;;;;;;;15.88;2.50;;;18.30;80.50;;;;;;5056147;28;20025;-85
2023/03/18 10:27:14;;;;;;;3.33;1.58;;;18.30;80.50;;;;;;5045237;28;20388;-83
2023/03/18 10:29:57;;;;;;;8.00;1.95;;;18.40;78.40;;;;;;5056965;28;20028;-83
2023/03/18 10:32:34;;;;;;;6.63;1.90;;;18.80;77.70;;;;;;5089084;28;20020;-84
2023/03/18 10:35:40;;;;;;;7.32;2.30;;;19.30;77.30;;;;;;5055959;28;20036;-85
2023/03/18 10:38:22;;;;;;;3.15;1.83;;;19.80;76.30;;;;;;5056062;28;20033;-86
2023/03/18 10:40:48;;;;;;;3.15;1.80;;;20.40;74.30;;;;;;5072087;28;20040;-87
2023/03/18 10:43:18;;;;;;;5.22;2.10;;;20.50;70.60;;;;;;5055465;28;20040;-86
2023/03/18 10:45:46;;;;;;;8.60;2.17;;;20.40;70.40;;;;;;5055431;28;20029;-86
2023/03/18 10:48:27;;;;;;;7.00;2.10;;;19.80;73.70;;;;;;5055504;28;20064;-86
2023/03/18 10:51:08;;;;;;;7.17;2.13;;;19.10;74.60;;;;;;5039288;28;20496;-86
2023/03/18 10:53:42;;;;;;;6.57;2.30;;;18.50;76.90;;;;;;5073099;28;20271;-86
2023/03/18 10:56:11;;;;;;;9.95;3.13;;;18.50;78.80;;;;;;5055042;28;20036;-85
2023/03/18 10:58:40;;;;;;;6.43;1.70;;;18.80;80.40;;;;;;5054870;28;20125;-85
2023/03/18 11:01:07;;;;;;;6.30;2.40;;;18.60;78.20;;;;;;5071699;28;20029;-86
2023/03/18 11:03:41;;;;;;;3.95;1.83;;;18.20;80.80;;;;;;5055041;28;20032;-85
2023/03/18 11:06:14;;;;;;;6.75;2.13;;;18.20;80.50;;;;;;5055425;28;20099;-85
2023/03/18 11:08:40;;;;;;;7.20;2.80;;;18.60;81.30;;;;;;5055228;28;20102;-86
2023/03/18 11:11:26;;;;;;;4.72;2.20;;;19.10;80.10;;;;;;5055240;28;20474;-86
2023/03/18 11:13:54;;;;;;;6.70;2.90;;;19.30;79.70;;;;;;5038976;28;20498;-86
2023/03/18 11:16:38;;;;;;;6.93;2.63;;;19.60;77.10;;;;;;5054423;28;20029;-85
2023/03/18 11:19:38;;;;;;;4.80;2.13;;;19.60;78.60;;;;;;5071150;28;20025;-86
2023/03/18 11:22:10;;;;;;;3.80;1.70;;;19.30;77.20;;;;;;5054491;28;20037;-86
2023/03/18 11:24:42;;;;;;;6.72;2.30;;;20.00;76.90;;;;;;5054814;28;20036;-85
2023/03/18 11:27:17;;;;;;;6.32;1.67;;;20.20;77.40;;;;;;5055004;28;20750;-86
2023/03/18 11:29:53;;;;;;;4.25;2.22;;;20.50;74.90;;;;;;5054877;28;20392;-86
2023/03/18 11:32:27;;;;;;;6.63;2.55;;;20.30;75.50;;;;;;5055017;28;20033;-86
2023/03/18 11:34:56;;;;;;;8.00;2.05;;;20.60;73.20;;;;;;5054982;28;20032;-86
2023/03/18 11:37:46;;;;;;;6.30;2.08;;;20.90;72.80;;;;;;5055054;28;20036;-86
2023/03/18 11:40:18;;;;;;;5.50;1.70;;;20.90;73.50;;;;;;5044260;28;20044;-84
2023/03/18 11:42:46;;;;;;;5.05;2.33;;;21.10;71.50;;;;;;5061029;28;20028;-86
2023/03/18 11:45:42;;;;;;;4.43;1.80;;;21.70;72.80;;;;;;5058655;28;20490;-86
2023/03/18 11:48:35;;;;;;;4.43;2.30;;;21.50;70.80;;;;;;5057931;28;20036;-85
2023/03/18 11:51:25;;;;;;;5.60;2.00;;;21.90;70.30;;;;;;5071255;28;20071;-86
2023/03/18 11:54:06;;;;;;;3.93;2.30;;;22.00;70.50;;;;;;5055060;28;20033;-86
2023/03/18 11:56:56;;;;;;;8.18;2.45;;;22.20;68.70;;;;;;5038368;28;20028;-86
2023/03/18 11:59:45;;;;;;;6.18;2.13;;;22.10;68.70;;;;;;5054954;28;20045;-86
2023/03/18 12:02:38;;;;;;;5.80;2.42;;;21.70;66.30;;;;;;5038323;28;20029;-86
2023/03/18 12:05:35;;;;;;;5.68;2.08;;;20.90;70.40;;;;;;5071373;28;20039;-86
2023/03/18 12:08:21;;;;;;;5.60;2.22;;;20.90;70.80;;;;;;5055033;28;20044;-86
2023/03/18 12:11:08;;;;;;;9.38;2.55;;;20.20;70.70;;;;;;5088080;28;20071;-85
2023/03/18 12:13:43;;;;;;;5.65;2.47;;;19.90;74.70;;;;;;5037548;28;20119;-86
2023/03/18 12:16:35;;;;;;;7.28;2.47;;;20.20;75.60;;;;;;5073031;28;20059;-85
2023/03/18 12:19:33;;;;;;;6.63;3.13;;;20.00;73.80;;;;;;5041920;28;20578;-83
2023/03/18 12:22:10;;;;;;;4.70;2.10;;;20.00;73.00;;;;;;5058073;28;20895;-82
2023/03/18 12:25:00;;;;;;;6.55;2.50;;;20.50;72.20;;;;;;5077002;28;20025;-82
2023/03/18 12:27:37;;;;;;;3.58;2.38;;;20.40;73.70;;;;;;5091573;28;20492;-87
2023/03/18 12:30:19;;;;;;;6.88;2.47;;;19.40;76.40;;;;;;5090687;28;20514;-85
2023/03/18 12:33:08;;;;;;;7.15;2.33;;;18.30;78.00;;;;;;5075454;28;20539;-86
2023/03/18 12:35:43;;;;;;;6.70;2.55;;;18.00;78.80;;;;;;5041591;28;20815;-84
2023/03/18 12:38:23;;;;;;;6.35;2.20;;;17.90;80.00;;;;;;5060568;28;20082;-82
2023/03/18 12:41:17;;;;;;;6.93;2.78;;;17.80;80.70;;;;;;5044310;28;20040;-82
2023/03/18 12:44:06;;;;;;;5.35;2.38;;;17.80;81.80;;;;;;5076908;28;20033;-81
2023/03/18 12:46:40;;;;;;;8.07;1.90;;;18.10;79.40;;;;;;5058732;28;20032;-82
2023/03/18 12:49:18;;;;;;;6.30;2.60;;;18.40;79.90;;;;;;5077909;28;20042;-81
2023/03/18 12:52:06;;;;;;;5.50;2.60;;;18.00;79.60;;;;;;5058623;28;20035;-81
2023/03/18 12:54:39;;;;;;;5.82;2.30;;;17.60;80.90;;;;;;5076644;28;20029;-82
2023/03/18 12:57:40;;;;;;;5.72;2.22;;;17.60;83.20;;;;;;5061621;28;20044;-82
2023/03/18 13:00:17;;;;;;;;;;;17.80;81.40;;;;;;5075181;28;20028;-82
2023/03/18 13:02:54;;;;;;;3.60;2.60;;;18.20;80.90;;;;;;5075666;28;19908;-83
2023/03/18 13:05:29;;;;;;;5.68;2.58;;;18.70;82.20;;;;;;5084655;28;20029;-87
2023/03/18 13:08:13;;;;;;;9.50;2.25;;;19.40;80.50;;;;;;5063783;28;20032;-82
2023/03/18 13:10:40;;;;;;;7.25;2.13;;;19.60;77.20;;;;;;5076265;28;20032;-81
2023/03/18 13:13:09;;;;;;;6.40;2.83;;;19.60;76.60;;;;;;5091070;28;20357;-78